sensor_id;sensor_type;location;lat;lon;timestamp;temperature;humidity
19025;DHT22;9645;51.448;6.260;2023-12-20T00:01:00;6.90;99.90
19025;DHT22;9645;51.448;6.260;2023-12-20T00:03:27;6.90;99.90
19025;DHT22;9645;51.448;6.260;2023-12-20T00:05:54;7.00;99.90
19025;DHT22;9645;51.448;6.260;2023-12-20T00:08:23;7.00;99.90
19025;DHT22;9645;51.448;6.260;2023-12-20T00:10:50;7.00;99.90
19025;DHT22;9645;51.448;6.260;2023-12-20T00:13:17;6.80;99.90
19025;DHT22;9645;51.448;6.260;2023-12-20T00:15:44;7.10;99.90
19025;DHT22;9645;51.448;6.260;2023-12-20T00:18:11;7.10;99.90
19025;DHT22;9645;51.448;6.260;2023-12-20T00:20:38;7.10;99.90
19025;DHT22;9645;51.448;6.260;2023-12-20T00:23:05;7.00;99.90
19025;DHT22;9645;51.448;6.260;2023-12-20T00:25:34;7.00;99.90
19025;DHT22;9645;51.448;6.260;2023-12-20T00:28:02;7.00;99.90
19025;DHT22;9645;51.448;6.260;2023-12-20T00:30:29;7.00;99.90
19025;DHT22;9645;51.448;6.260;2023-12-20T00:32:56;7.10;99.90
19025;DHT22;9645;51.448;6.260;2023-12-20T00:35:23;7.10;99.90
19025;DHT22;9645;51.448;6.260;2023-12-20T00:37:50;7.00;99.90
19025;DHT22;9645;51.448;6.260;2023-12-20T00:40:17;7.00;99.90
19025;DHT22;9645;51.448;6.260;2023-12-20T00:42:45;7.10;99.90
19025;DHT22;9645;51.448;6.260;2023-12-20T00:45:12;7.00;99.90
19025;DHT22;9645;51.448;6.260;2023-12-20T00:47:40;7.00;99.90
19025;DHT22;9645;51.448;6.260;2023-12-20T00:50:08;7.00;99.90
19025;DHT22;9645;51.448;6.260;2023-12-20T00:52:35;6.90;99.90
19025;DHT22;9645;51.448;6.260;2023-12-20T00:55:02;6.90;99.90
19025;DHT22;9645;51.448;6.260;2023-12-20T00:57:29;6.90;99.90
19025;DHT22;9645;51.448;6.260;2023-12-20T00:59:58;6.80;99.90
19025;DHT22;9645;51.448;6.260;2023-12-20T01:02:25;6.70;99.90
19025;DHT22;9645;51.448;6.260;2023-12-20T01:04:52;6.70;99.90
19025;DHT22;9645;51.448;6.260;2023-12-20T01:07:19;6.60;99.90
19025;DHT22;9645;51.448;6.260;2023-12-20T01:09:46;6.60;99.90
19025;DHT22;9645;51.448;6.260;2023-12-20T01:12:13;6.50;99.90
19025;DHT22;9645;51.448;6.260;2023-12-20T01:14:40;6.50;99.90
19025;DHT22;9645;51.448;6.260;2023-12-20T01:17:09;6.40;99.90
19025;DHT22;9645;51.448;6.260;2023-12-20T01:19:36;6.30;99.90
19025;DHT22;9645;51.448;6.260;2023-12-20T01:22:03;6.30;99.90
19025;DHT22;9645;51.448;6.260;2023-12-20T01:24:30;6.20;99.90
19025;DHT22;9645;51.448;6.260;2023-12-20T01:26:57;6.10;99.90
19025;DHT22;9645;51.448;6.260;2023-12-20T01:29:24;6.10;99.90
19025;DHT22;9645;51.448;6.260;2023-12-20T01:31:51;6.10;99.90
19025;DHT22;9645;51.448;6.260;2023-12-20T01:34:19;5.90;99.90
19025;DHT22;9645;51.448;6.260;2023-12-20T01:36:46;5.90;99.90
19025;DHT22;9645;51.448;6.260;2023-12-20T01:39:13;5.90;99.90
19025;DHT22;9645;51.448;6.260;2023-12-20T01:41:40;5.90;99.90
19025;DHT22;9645;51.448;6.260;2023-12-20T01:44:07;5.80;99.90
19025;DHT22;9645;51.448;6.260;2023-12-20T01:46:34;5.80;99.90
19025;DHT22;9645;51.448;6.260;2023-12-20T01:49:01;5.70;99.90
19025;DHT22;9645;51.448;6.260;2023-12-20T01:51:30;5.80;99.90
19025;DHT22;9645;51.448;6.260;2023-12-20T01:53:58;5.70;99.90
19025;DHT22;9645;51.448;6.260;2023-12-20T01:56:26;5.70;99.90
19025;DHT22;9645;51.448;6.260;2023-12-20T01:58:53;5.60;99.90
19025;DHT22;9645;51.448;6.260;2023-12-20T02:01:21;5.60;99.90
19025;DHT22;9645;51.448;6.260;2023-12-20T02:03:48;5.60;99.90
19025;DHT22;9645;51.448;6.260;2023-12-20T02:06:15;5.50;99.90
19025;DHT22;9645;51.448;6.260;2023-12-20T02:08:44;5.50;99.90
19025;DHT22;9645;51.448;6.260;2023-12-20T02:11:12;5.40;99.90
19025;DHT22;9645;51.448;6.260;2023-12-20T02:13:39;5.40;99.90
19025;DHT22;9645;51.448;6.260;2023-12-20T02:16:06;5.40;99.90
19025;DHT22;9645;51.448;6.260;2023-12-20T02:18:33;5.40;99.90
19025;DHT22;9645;51.448;6.260;2023-12-20T02:21:00;5.40;99.90
19025;DHT22;9645;51.448;6.260;2023-12-20T02:23:29;5.30;99.90
19025;DHT22;9645;51.448;6.260;2023-12-20T02:25:56;5.30;99.90
19025;DHT22;9645;51.448;6.260;2023-12-20T02:28:23;5.30;99.90
19025;DHT22;9645;51.448;6.260;2023-12-20T02:30:50;5.30;99.90
19025;DHT22;9645;51.448;6.260;2023-12-20T02:33:17;5.20;99.90
19025;DHT22;9645;51.448;6.260;2023-12-20T02:35:43;5.30;99.90
19025;DHT22;9645;51.448;6.260;2023-12-20T02:38:10;5.20;99.90
19025;DHT22;9645;51.448;6.260;2023-12-20T02:40:39;5.30;99.90
19025;DHT22;9645;51.448;6.260;2023-12-20T02:43:06;5.30;99.90
19025;DHT22;9645;51.448;6.260;2023-12-20T02:45:33;5.30;99.90
19025;DHT22;9645;51.448;6.260;2023-12-20T02:48:01;5.30;99.90
19025;DHT22;9645;51.448;6.260;2023-12-20T02:50:28;5.40;99.90
19025;DHT22;9645;51.448;6.260;2023-12-20T02:52:55;5.40;99.90
19025;DHT22;9645;51.448;6.260;2023-12-20T02:55:22;5.40;99.90
19025;DHT22;9645;51.448;6.260;2023-12-20T02:57:50;5.40;99.90
19025;DHT22;9645;51.448;6.260;2023-12-20T03:00:17;5.30;99.90
19025;DHT22;9645;51.448;6.260;2023-12-20T03:02:44;5.40;99.90
19025;DHT22;9645;51.448;6.260;2023-12-20T03:05:11;5.40;99.90
19025;DHT22;9645;51.448;6.260;2023-12-20T03:07:38;5.30;99.90
19025;DHT22;9645;51.448;6.260;2023-12-20T03:10:06;5.30;99.90
19025;DHT22;9645;51.448;6.260;2023-12-20T03:12:35;5.30;99.90
19025;DHT22;9645;51.448;6.260;2023-12-20T03:15:03;5.30;99.90
19025;DHT22;9645;51.448;6.260;2023-12-20T03:17:31;5.20;99.90
19025;DHT22;9645;51.448;6.260;2023-12-20T03:19:58;5.20;99.90
19025;DHT22;9645;51.448;6.260;2023-12-20T03:22:25;5.20;99.90
19025;DHT22;9645;51.448;6.260;2023-12-20T03:24:52;5.20;99.90
19025;DHT22;9645;51.448;6.260;2023-12-20T03:27:18;5.20;99.90
19025;DHT22;9645;51.448;6.260;2023-12-20T03:29:46;5.30;99.90
19025;DHT22;9645;51.448;6.260;2023-12-20T03:32:14;5.30;99.90
19025;DHT22;9645;51.448;6.260;2023-12-20T03:34:41;5.30;99.90
19025;DHT22;9645;51.448;6.260;2023-12-20T03:37:08;5.30;99.90
19025;DHT22;9645;51.448;6.260;2023-12-20T03:39:35;5.20;99.90
19025;DHT22;9645;51.448;6.260;2023-12-20T03:42:02;5.20;99.90
19025;DHT22;9645;51.448;6.260;2023-12-20T03:44:29;5.20;99.90
19025;DHT22;9645;51.448;6.260;2023-12-20T03:46:56;5.20;99.90
19025;DHT22;9645;51.448;6.260;2023-12-20T03:49:24;5.20;99.90
19025;DHT22;9645;51.448;6.260;2023-12-20T03:51:51;5.20;99.90
19025;DHT22;9645;51.448;6.260;2023-12-20T03:54:18;5.20;99.90
19025;DHT22;9645;51.448;6.260;2023-12-20T03:56:45;5.10;99.90
19025;DHT22;9645;51.448;6.260;2023-12-20T03:59:12;5.00;99.90
19025;DHT22;9645;51.448;6.260;2023-12-20T04:01:43;5.00;99.90
19025;DHT22;9645;51.448;6.260;2023-12-20T04:04:10;5.00;99.90
19025;DHT22;9645;51.448;6.260;2023-12-20T04:06:38;5.00;99.90
19025;DHT22;9645;51.448;6.260;2023-12-20T04:09:05;5.00;99.90
19025;DHT22;9645;51.448;6.260;2023-12-20T04:11:34;5.00;99.90
19025;DHT22;9645;51.448;6.260;2023-12-20T04:14:01;5.00;99.90
19025;DHT22;9645;51.448;6.260;2023-12-20T04:16:30;4.90;99.90
19025;DHT22;9645;51.448;6.260;2023-12-20T04:18:57;5.00;99.90
19025;DHT22;9645;51.448;6.260;2023-12-20T04:21:24;5.00;99.90
19025;DHT22;9645;51.448;6.260;2023-12-20T04:23:52;5.00;99.90
19025;DHT22;9645;51.448;6.260;2023-12-20T04:26:19;5.10;99.90
19025;DHT22;9645;51.448;6.260;2023-12-20T04:28:46;5.10;99.90
19025;DHT22;9645;51.448;6.260;2023-12-20T04:31:13;5.00;99.90
19025;DHT22;9645;51.448;6.260;2023-12-20T04:33:40;5.00;99.90
19025;DHT22;9645;51.448;6.260;2023-12-20T04:36:07;5.00;99.90
19025;DHT22;9645;51.448;6.260;2023-12-20T04:38:35;5.00;99.90
19025;DHT22;9645;51.448;6.260;2023-12-20T04:41:03;5.00;99.90
19025;DHT22;9645;51.448;6.260;2023-12-20T04:43:30;5.00;99.90
19025;DHT22;9645;51.448;6.260;2023-12-20T04:45:57;5.10;99.90
19025;DHT22;9645;51.448;6.260;2023-12-20T04:48:24;5.10;99.90
19025;DHT22;9645;51.448;6.260;2023-12-20T04:50:51;5.20;99.90
19025;DHT22;9645;51.448;6.260;2023-12-20T04:53:18;5.20;99.90
19025;DHT22;9645;51.448;6.260;2023-12-20T04:55:45;5.20;99.90
19025;DHT22;9645;51.448;6.260;2023-12-20T04:58:13;5.20;99.90
19025;DHT22;9645;51.448;6.260;2023-12-20T05:00:40;5.20;99.90
19025;DHT22;9645;51.448;6.260;2023-12-20T05:03:07;5.30;99.90
19025;DHT22;9645;51.448;6.260;2023-12-20T05:05:34;5.30;99.90
19025;DHT22;9645;51.448;6.260;2023-12-20T05:08:01;5.30;99.90
19025;DHT22;9645;51.448;6.260;2023-12-20T05:10:29;5.30;99.90
19025;DHT22;9645;51.448;6.260;2023-12-20T05:12:56;5.40;99.90
19025;DHT22;9645;51.448;6.260;2023-12-20T05:15:25;5.40;99.90
19025;DHT22;9645;51.448;6.260;2023-12-20T05:17:51;5.50;99.90
19025;DHT22;9645;51.448;6.260;2023-12-20T05:20:18;5.50;99.90
19025;DHT22;9645;51.448;6.260;2023-12-20T05:22:45;5.50;99.90
19025;DHT22;9645;51.448;6.260;2023-12-20T05:25:13;5.50;99.90
19025;DHT22;9645;51.448;6.260;2023-12-20T05:27:40;5.50;99.90
19025;DHT22;9645;51.448;6.260;2023-12-20T05:30:07;5.60;99.90
19025;DHT22;9645;51.448;6.260;2023-12-20T05:32:36;5.60;99.90
19025;DHT22;9645;51.448;6.260;2023-12-20T05:35:03;5.60;99.90
19025;DHT22;9645;51.448;6.260;2023-12-20T05:37:30;5.70;99.90
19025;DHT22;9645;51.448;6.260;2023-12-20T05:39:57;5.70;99.90
19025;DHT22;9645;51.448;6.260;2023-12-20T05:42:24;5.70;99.90
19025;DHT22;9645;51.448;6.260;2023-12-20T05:44:51;5.80;99.90
19025;DHT22;9645;51.448;6.260;2023-12-20T05:47:18;5.80;99.90
19025;DHT22;9645;51.448;6.260;2023-12-20T05:49:46;5.80;99.90
19025;DHT22;9645;51.448;6.260;2023-12-20T05:52:13;5.80;99.90
19025;DHT22;9645;51.448;6.260;2023-12-20T05:54:40;5.80;99.90
19025;DHT22;9645;51.448;6.260;2023-12-20T05:57:07;5.80;99.90
19025;DHT22;9645;51.448;6.260;2023-12-20T05:59:34;5.80;99.90
19025;DHT22;9645;51.448;6.260;2023-12-20T06:02:03;5.80;99.90
19025;DHT22;9645;51.448;6.260;2023-12-20T06:04:30;5.90;99.90
19025;DHT22;9645;51.448;6.260;2023-12-20T06:06:58;5.90;99.90
19025;DHT22;9645;51.448;6.260;2023-12-20T06:09:27;5.90;99.90
19025;DHT22;9645;51.448;6.260;2023-12-20T06:11:54;5.90;99.90
19025;DHT22;9645;51.448;6.260;2023-12-20T06:14:21;5.90;99.90
19025;DHT22;9645;51.448;6.260;2023-12-20T06:16:48;6.00;99.90
19025;DHT22;9645;51.448;6.260;2023-12-20T06:19:15;6.00;99.90
19025;DHT22;9645;51.448;6.260;2023-12-20T06:21:42;6.00;99.90
19025;DHT22;9645;51.448;6.260;2023-12-20T06:24:10;6.00;99.90
19025;DHT22;9645;51.448;6.260;2023-12-20T06:26:37;6.00;99.90
19025;DHT22;9645;51.448;6.260;2023-12-20T06:29:04;6.00;99.90
19025;DHT22;9645;51.448;6.260;2023-12-20T06:31:31;6.00;99.90
19025;DHT22;9645;51.448;6.260;2023-12-20T06:33:58;6.00;99.90
19025;DHT22;9645;51.448;6.260;2023-12-20T06:36:25;6.10;99.90
19025;DHT22;9645;51.448;6.260;2023-12-20T06:38:53;6.10;99.90
19025;DHT22;9645;51.448;6.260;2023-12-20T06:41:21;6.10;99.90
19025;DHT22;9645;51.448;6.260;2023-12-20T06:43:50;6.10;99.90
19025;DHT22;9645;51.448;6.260;2023-12-20T06:46:17;6.10;99.90
19025;DHT22;9645;51.448;6.260;2023-12-20T06:48:44;6.10;99.90
19025;DHT22;9645;51.448;6.260;2023-12-20T06:51:15;6.10;99.90
19025;DHT22;9645;51.448;6.260;2023-12-20T06:53:42;6.10;99.90
19025;DHT22;9645;51.448;6.260;2023-12-20T06:56:10;6.10;99.90
19025;DHT22;9645;51.448;6.260;2023-12-20T06:58:39;6.20;99.90
19025;DHT22;9645;51.448;6.260;2023-12-20T07:01:11;6.20;99.90
19025;DHT22;9645;51.448;6.260;2023-12-20T07:03:38;6.20;99.90
19025;DHT22;9645;51.448;6.260;2023-12-20T07:06:05;6.20;99.90
19025;DHT22;9645;51.448;6.260;2023-12-20T07:08:33;6.20;99.90
19025;DHT22;9645;51.448;6.260;2023-12-20T07:11:01;6.30;99.90
19025;DHT22;9645;51.448;6.260;2023-12-20T07:13:29;6.30;99.90
19025;DHT22;9645;51.448;6.260;2023-12-20T07:15:58;6.30;99.90
19025;DHT22;9645;51.448;6.260;2023-12-20T07:18:25;6.30;99.90
19025;DHT22;9645;51.448;6.260;2023-12-20T07:20:52;6.30;99.90
19025;DHT22;9645;51.448;6.260;2023-12-20T07:23:20;6.30;99.90
19025;DHT22;9645;51.448;6.260;2023-12-20T07:25:47;6.30;99.90
19025;DHT22;9645;51.448;6.260;2023-12-20T07:28:14;6.30;99.90
19025;DHT22;9645;51.448;6.260;2023-12-20T07:30:41;6.30;99.90
19025;DHT22;9645;51.448;6.260;2023-12-20T07:33:09;6.30;99.90
19025;DHT22;9645;51.448;6.260;2023-12-20T07:35:38;6.30;99.90
19025;DHT22;9645;51.448;6.260;2023-12-20T07:38:06;6.30;99.90
19025;DHT22;9645;51.448;6.260;2023-12-20T07:40:33;6.20;99.90
19025;DHT22;9645;51.448;6.260;2023-12-20T07:43:00;6.30;99.90
19025;DHT22;9645;51.448;6.260;2023-12-20T07:45:27;6.20;99.90
19025;DHT22;9645;51.448;6.260;2023-12-20T07:47:53;6.20;99.90
19025;DHT22;9645;51.448;6.260;2023-12-20T07:50:22;6.10;99.90
19025;DHT22;9645;51.448;6.260;2023-12-20T07:52:49;6.10;99.90
19025;DHT22;9645;51.448;6.260;2023-12-20T07:55:16;6.10;99.90
19025;DHT22;9645;51.448;6.260;2023-12-20T07:57:42;6.10;99.90
19025;DHT22;9645;51.448;6.260;2023-12-20T08:00:10;6.10;99.90
19025;DHT22;9645;51.448;6.260;2023-12-20T08:02:37;6.10;99.90
19025;DHT22;9645;51.448;6.260;2023-12-20T08:05:05;6.00;99.90
19025;DHT22;9645;51.448;6.260;2023-12-20T08:07:34;6.10;99.90
19025;DHT22;9645;51.448;6.260;2023-12-20T08:10:01;6.00;99.90
19025;DHT22;9645;51.448;6.260;2023-12-20T08:12:28;6.00;99.90
19025;DHT22;9645;51.448;6.260;2023-12-20T08:14:56;6.00;99.90
19025;DHT22;9645;51.448;6.260;2023-12-20T08:17:23;6.00;99.90
19025;DHT22;9645;51.448;6.260;2023-12-20T08:19:51;6.00;99.90
19025;DHT22;9645;51.448;6.260;2023-12-20T08:22:18;6.00;99.90
19025;DHT22;9645;51.448;6.260;2023-12-20T08:24:46;6.00;99.90
19025;DHT22;9645;51.448;6.260;2023-12-20T08:27:13;6.00;99.90
19025;DHT22;9645;51.448;6.260;2023-12-20T08:29:43;6.00;99.90
19025;DHT22;9645;51.448;6.260;2023-12-20T08:32:10;6.00;99.90
19025;DHT22;9645;51.448;6.260;2023-12-20T08:34:37;5.20;99.90
19025;DHT22;9645;51.448;6.260;2023-12-20T08:37:04;6.10;99.90
19025;DHT22;9645;51.448;6.260;2023-12-20T08:39:31;6.00;99.90
19025;DHT22;9645;51.448;6.260;2023-12-20T08:42:00;6.00;99.90
19025;DHT22;9645;51.448;6.260;2023-12-20T08:44:27;6.00;99.90
19025;DHT22;9645;51.448;6.260;2023-12-20T08:46:54;6.10;99.90
19025;DHT22;9645;51.448;6.260;2023-12-20T08:49:23;6.10;99.90
19025;DHT22;9645;51.448;6.260;2023-12-20T08:51:51;6.10;99.90
19025;DHT22;9645;51.448;6.260;2023-12-20T08:54:18;6.20;99.90
19025;DHT22;9645;51.448;6.260;2023-12-20T08:56:45;6.20;99.90
19025;DHT22;9645;51.448;6.260;2023-12-20T08:59:14;6.20;99.90
19025;DHT22;9645;51.448;6.260;2023-12-20T09:01:41;6.20;99.90
19025;DHT22;9645;51.448;6.260;2023-12-20T09:04:08;6.20;99.90
19025;DHT22;9645;51.448;6.260;2023-12-20T09:06:35;6.20;99.90
19025;DHT22;9645;51.448;6.260;2023-12-20T09:09:02;6.20;99.90
19025;DHT22;9645;51.448;6.260;2023-12-20T09:11:29;6.20;99.90
19025;DHT22;9645;51.448;6.260;2023-12-20T09:13:56;6.20;99.90
19025;DHT22;9645;51.448;6.260;2023-12-20T09:16:27;6.20;99.90
19025;DHT22;9645;51.448;6.260;2023-12-20T09:18:57;6.20;99.90
19025;DHT22;9645;51.448;6.260;2023-12-20T09:21:24;6.30;99.90
19025;DHT22;9645;51.448;6.260;2023-12-20T09:23:51;6.10;99.90
19025;DHT22;9645;51.448;6.260;2023-12-20T09:26:18;6.40;99.90
19025;DHT22;9645;51.448;6.260;2023-12-20T09:28:45;6.40;99.90
19025;DHT22;9645;51.448;6.260;2023-12-20T09:31:13;6.40;99.90
19025;DHT22;9645;51.448;6.260;2023-12-20T09:33:41;6.50;99.90
19025;DHT22;9645;51.448;6.260;2023-12-20T09:36:08;6.50;99.90
19025;DHT22;9645;51.448;6.260;2023-12-20T09:38:35;6.40;99.90
19025;DHT22;9645;51.448;6.260;2023-12-20T09:41:02;6.50;99.90
19025;DHT22;9645;51.448;6.260;2023-12-20T09:43:30;6.50;99.90
19025;DHT22;9645;51.448;6.260;2023-12-20T09:46:00;6.60;99.90
19025;DHT22;9645;51.448;6.260;2023-12-20T09:48:29;6.60;99.90
19025;DHT22;9645;51.448;6.260;2023-12-20T09:50:58;6.60;99.90
19025;DHT22;9645;51.448;6.260;2023-12-20T09:53:25;6.70;99.90
19025;DHT22;9645;51.448;6.260;2023-12-20T09:55:58;6.70;99.90
19025;DHT22;9645;51.448;6.260;2023-12-20T09:58:25;6.70;99.90
19025;DHT22;9645;51.448;6.260;2023-12-20T10:00:53;6.70;99.90
19025;DHT22;9645;51.448;6.260;2023-12-20T10:03:24;6.70;99.90
19025;DHT22;9645;51.448;6.260;2023-12-20T10:05:54;6.70;99.90
19025;DHT22;9645;51.448;6.260;2023-12-20T10:08:23;6.70;99.90
19025;DHT22;9645;51.448;6.260;2023-12-20T10:10:51;6.80;99.90
19025;DHT22;9645;51.448;6.260;2023-12-20T10:13:19;6.80;99.90
19025;DHT22;9645;51.448;6.260;2023-12-20T10:15:46;6.80;99.90
19025;DHT22;9645;51.448;6.260;2023-12-20T10:18:13;6.80;99.90
19025;DHT22;9645;51.448;6.260;2023-12-20T10:20:41;6.90;99.90
19025;DHT22;9645;51.448;6.260;2023-12-20T10:23:08;7.00;99.90
19025;DHT22;9645;51.448;6.260;2023-12-20T10:25:37;7.00;99.90
19025;DHT22;9645;51.448;6.260;2023-12-20T10:28:11;7.00;99.90
19025;DHT22;9645;51.448;6.260;2023-12-20T10:30:38;7.00;99.90
19025;DHT22;9645;51.448;6.260;2023-12-20T10:33:06;6.90;99.90
19025;DHT22;9645;51.448;6.260;2023-12-20T10:35:33;7.00;99.90
19025;DHT22;9645;51.448;6.260;2023-12-20T10:38:03;7.00;99.90
19025;DHT22;9645;51.448;6.260;2023-12-20T10:40:31;7.00;99.90
19025;DHT22;9645;51.448;6.260;2023-12-20T10:43:01;7.50;99.90
19025;DHT22;9645;51.448;6.260;2023-12-20T10:45:28;7.00;99.90
19025;DHT22;9645;51.448;6.260;2023-12-20T10:47:56;7.00;99.90
19025;DHT22;9645;51.448;6.260;2023-12-20T10:50:25;6.90;99.90
19025;DHT22;9645;51.448;6.260;2023-12-20T10:52:54;7.00;99.90
19025;DHT22;9645;51.448;6.260;2023-12-20T10:55:22;7.00;99.90
19025;DHT22;9645;51.448;6.260;2023-12-20T10:57:50;7.00;99.90
19025;DHT22;9645;51.448;6.260;2023-12-20T11:00:19;7.00;99.90
19025;DHT22;9645;51.448;6.260;2023-12-20T11:02:49;7.10;99.90
19025;DHT22;9645;51.448;6.260;2023-12-20T11:05:25;7.10;99.90
19025;DHT22;9645;51.448;6.260;2023-12-20T11:07:57;7.20;99.90
19025;DHT22;9645;51.448;6.260;2023-12-20T11:10:29;7.30;99.90
19025;DHT22;9645;51.448;6.260;2023-12-20T11:13:01;7.30;99.90
19025;DHT22;9645;51.448;6.260;2023-12-20T11:15:36;7.40;99.90
19025;DHT22;9645;51.448;6.260;2023-12-20T11:18:04;7.40;99.90
19025;DHT22;9645;51.448;6.260;2023-12-20T11:20:36;7.30;99.90
19025;DHT22;9645;51.448;6.260;2023-12-20T11:23:04;7.30;99.90
19025;DHT22;9645;51.448;6.260;2023-12-20T11:25:46;7.20;99.90
19025;DHT22;9645;51.448;6.260;2023-12-20T11:28:13;7.20;99.90
19025;DHT22;9645;51.448;6.260;2023-12-20T11:30:43;7.10;99.90
19025;DHT22;9645;51.448;6.260;2023-12-20T11:33:13;7.10;99.90
19025;DHT22;9645;51.448;6.260;2023-12-20T11:35:40;7.10;99.90
19025;DHT22;9645;51.448;6.260;2023-12-20T11:38:08;7.10;99.90
19025;DHT22;9645;51.448;6.260;2023-12-20T11:40:35;7.10;99.90
19025;DHT22;9645;51.448;6.260;2023-12-20T11:43:03;7.10;99.90
19025;DHT22;9645;51.448;6.260;2023-12-20T11:45:30;7.00;99.90
19025;DHT22;9645;51.448;6.260;2023-12-20T11:47:59;7.00;99.90
19025;DHT22;9645;51.448;6.260;2023-12-20T11:50:26;7.10;99.90
19025;DHT22;9645;51.448;6.260;2023-12-20T11:52:54;7.10;99.90
19025;DHT22;9645;51.448;6.260;2023-12-20T11:55:21;7.00;99.90
19025;DHT22;9645;51.448;6.260;2023-12-20T11:57:50;7.10;99.90
19025;DHT22;9645;51.448;6.260;2023-12-20T12:00:18;7.10;99.90
19025;DHT22;9645;51.448;6.260;2023-12-20T12:02:55;7.10;99.90
19025;DHT22;9645;51.448;6.260;2023-12-20T12:05:24;7.20;99.90
19025;DHT22;9645;51.448;6.260;2023-12-20T12:07:51;7.20;99.90
19025;DHT22;9645;51.448;6.260;2023-12-20T12:10:18;7.30;99.90
19025;DHT22;9645;51.448;6.260;2023-12-20T12:12:46;7.30;99.90
19025;DHT22;9645;51.448;6.260;2023-12-20T12:15:14;7.20;99.90
19025;DHT22;9645;51.448;6.260;2023-12-20T12:17:41;7.20;99.90
19025;DHT22;9645;51.448;6.260;2023-12-20T12:20:09;7.20;99.90
19025;DHT22;9645;51.448;6.260;2023-12-20T12:22:37;7.20;99.90
19025;DHT22;9645;51.448;6.260;2023-12-20T12:25:12;7.20;99.90
19025;DHT22;9645;51.448;6.260;2023-12-20T12:27:40;7.20;99.90
19025;DHT22;9645;51.448;6.260;2023-12-20T12:30:09;7.20;99.90
19025;DHT22;9645;51.448;6.260;2023-12-20T12:32:38;7.20;99.90
19025;DHT22;9645;51.448;6.260;2023-12-20T12:35:06;7.20;99.90
19025;DHT22;9645;51.448;6.260;2023-12-20T12:37:35;7.20;99.90
19025;DHT22;9645;51.448;6.260;2023-12-20T12:40:06;7.20;99.90
19025;DHT22;9645;51.448;6.260;2023-12-20T12:42:33;7.20;99.90
19025;DHT22;9645;51.448;6.260;2023-12-20T12:45:00;7.20;99.90
19025;DHT22;9645;51.448;6.260;2023-12-20T12:47:27;7.20;99.90
19025;DHT22;9645;51.448;6.260;2023-12-20T12:49:54;7.20;99.90
19025;DHT22;9645;51.448;6.260;2023-12-20T12:52:21;7.10;99.90
19025;DHT22;9645;51.448;6.260;2023-12-20T12:54:48;7.10;99.90
19025;DHT22;9645;51.448;6.260;2023-12-20T12:57:17;7.10;99.90
19025;DHT22;9645;51.448;6.260;2023-12-20T12:59:45;7.10;99.90
19025;DHT22;9645;51.448;6.260;2023-12-20T13:02:15;7.20;99.90
19025;DHT22;9645;51.448;6.260;2023-12-20T13:04:42;7.20;99.90
19025;DHT22;9645;51.448;6.260;2023-12-20T13:07:09;7.20;99.90
19025;DHT22;9645;51.448;6.260;2023-12-20T13:09:37;7.20;99.90
19025;DHT22;9645;51.448;6.260;2023-12-20T13:12:05;7.20;99.90
19025;DHT22;9645;51.448;6.260;2023-12-20T13:14:33;7.20;99.90
19025;DHT22;9645;51.448;6.260;2023-12-20T13:17:02;7.20;99.90
19025;DHT22;9645;51.448;6.260;2023-12-20T13:19:30;7.20;99.90
19025;DHT22;9645;51.448;6.260;2023-12-20T13:21:57;7.20;99.90
19025;DHT22;9645;51.448;6.260;2023-12-20T13:24:24;7.20;99.90
19025;DHT22;9645;51.448;6.260;2023-12-20T13:26:51;7.20;99.90
19025;DHT22;9645;51.448;6.260;2023-12-20T13:29:18;7.20;99.90
19025;DHT22;9645;51.448;6.260;2023-12-20T13:31:47;7.20;99.90
19025;DHT22;9645;51.448;6.260;2023-12-20T13:34:14;7.20;99.90
19025;DHT22;9645;51.448;6.260;2023-12-20T13:36:43;7.20;99.90
19025;DHT22;9645;51.448;6.260;2023-12-20T13:39:13;7.20;99.90
19025;DHT22;9645;51.448;6.260;2023-12-20T13:41:40;7.30;99.90
19025;DHT22;9645;51.448;6.260;2023-12-20T13:44:07;7.30;99.90
19025;DHT22;9645;51.448;6.260;2023-12-20T13:46:37;7.30;99.90
19025;DHT22;9645;51.448;6.260;2023-12-20T13:49:06;7.40;99.90
19025;DHT22;9645;51.448;6.260;2023-12-20T13:51:33;7.40;99.90
19025;DHT22;9645;51.448;6.260;2023-12-20T13:54:00;7.40;99.90
19025;DHT22;9645;51.448;6.260;2023-12-20T13:56:27;7.50;99.90
19025;DHT22;9645;51.448;6.260;2023-12-20T13:58:53;7.50;99.90
19025;DHT22;9645;51.448;6.260;2023-12-20T14:01:20;7.50;99.90
19025;DHT22;9645;51.448;6.260;2023-12-20T14:03:47;7.50;99.90
19025;DHT22;9645;51.448;6.260;2023-12-20T14:06:17;7.50;99.90
19025;DHT22;9645;51.448;6.260;2023-12-20T14:08:43;7.50;99.90
19025;DHT22;9645;51.448;6.260;2023-12-20T14:11:10;7.50;99.90
19025;DHT22;9645;51.448;6.260;2023-12-20T14:13:38;7.50;99.90
19025;DHT22;9645;51.448;6.260;2023-12-20T14:16:05;7.50;99.90
19025;DHT22;9645;51.448;6.260;2023-12-20T14:18:32;7.60;99.90
19025;DHT22;9645;51.448;6.260;2023-12-20T14:20:59;7.60;99.90
19025;DHT22;9645;51.448;6.260;2023-12-20T14:23:27;7.60;99.90
19025;DHT22;9645;51.448;6.260;2023-12-20T14:25:54;7.60;99.90
19025;DHT22;9645;51.448;6.260;2023-12-20T14:28:21;7.60;99.90
19025;DHT22;9645;51.448;6.260;2023-12-20T14:30:48;7.60;99.90
19025;DHT22;9645;51.448;6.260;2023-12-20T14:33:15;7.70;99.90
19025;DHT22;9645;51.448;6.260;2023-12-20T14:35:42;7.70;99.90
19025;DHT22;9645;51.448;6.260;2023-12-20T14:38:10;7.60;99.90
19025;DHT22;9645;51.448;6.260;2023-12-20T14:40:40;7.60;99.90
19025;DHT22;9645;51.448;6.260;2023-12-20T14:43:07;7.70;99.90
19025;DHT22;9645;51.448;6.260;2023-12-20T14:45:34;7.70;99.90
19025;DHT22;9645;51.448;6.260;2023-12-20T14:48:01;7.70;99.90
19025;DHT22;9645;51.448;6.260;2023-12-20T14:50:28;7.70;99.90
19025;DHT22;9645;51.448;6.260;2023-12-20T14:52:55;7.70;99.90
19025;DHT22;9645;51.448;6.260;2023-12-20T14:55:22;7.70;99.90
19025;DHT22;9645;51.448;6.260;2023-12-20T14:57:50;7.70;99.90
19025;DHT22;9645;51.448;6.260;2023-12-20T15:00:18;7.70;99.90
19025;DHT22;9645;51.448;6.260;2023-12-20T15:02:45;7.70;99.90
19025;DHT22;9645;51.448;6.260;2023-12-20T15:05:13;7.70;99.90
19025;DHT22;9645;51.448;6.260;2023-12-20T15:07:41;7.70;99.90
19025;DHT22;9645;51.448;6.260;2023-12-20T15:10:08;7.60;99.90
19025;DHT22;9645;51.448;6.260;2023-12-20T15:12:35;7.60;99.90
19025;DHT22;9645;51.448;6.260;2023-12-20T15:15:05;7.60;99.90
19025;DHT22;9645;51.448;6.260;2023-12-20T15:17:32;7.50;99.90
19025;DHT22;9645;51.448;6.260;2023-12-20T15:19:59;7.50;99.90
19025;DHT22;9645;51.448;6.260;2023-12-20T15:22:26;7.50;99.90
19025;DHT22;9645;51.448;6.260;2023-12-20T15:24:53;7.50;99.90
19025;DHT22;9645;51.448;6.260;2023-12-20T15:27:21;7.50;99.90
19025;DHT22;9645;51.448;6.260;2023-12-20T15:29:47;7.50;99.90
19025;DHT22;9645;51.448;6.260;2023-12-20T15:32:16;7.50;99.90
19025;DHT22;9645;51.448;6.260;2023-12-20T15:34:44;7.50;99.90
19025;DHT22;9645;51.448;6.260;2023-12-20T15:37:11;7.50;99.90
19025;DHT22;9645;51.448;6.260;2023-12-20T15:39:41;7.50;99.90
19025;DHT22;9645;51.448;6.260;2023-12-20T15:42:08;7.50;99.90
19025;DHT22;9645;51.448;6.260;2023-12-20T15:44:34;7.50;99.90
19025;DHT22;9645;51.448;6.260;2023-12-20T15:47:04;7.50;99.90
19025;DHT22;9645;51.448;6.260;2023-12-20T15:49:33;7.50;99.90
19025;DHT22;9645;51.448;6.260;2023-12-20T15:51:59;7.50;99.90
19025;DHT22;9645;51.448;6.260;2023-12-20T15:54:29;7.50;99.90
19025;DHT22;9645;51.448;6.260;2023-12-20T15:56:56;7.50;99.90
19025;DHT22;9645;51.448;6.260;2023-12-20T15:59:23;7.50;99.90
19025;DHT22;9645;51.448;6.260;2023-12-20T16:01:50;7.50;99.90
19025;DHT22;9645;51.448;6.260;2023-12-20T16:04:16;7.50;99.90